DAAJ/DJG METAR and TAF weather

Enter ICAO airport designator
Station Type Date Time Source
DAAJ METAR 2020/02/21 15:00 UTC NOAA

DAAJ 211500Z 15003KT CAVOK 24/M08 Q1020


Station Type Date Time Source
DAAJ Decoded METAR 2020/02/21 15:00 UTC NOAA

Djanet, Algeria (DAAJ) 24-33N 009-28E 1054M
Feb 21, 2020 - 10:00 AM EST / 2020.02.21 1500 UTC
Wind: from the SSE (150 degrees) at 3 MPH (3 KT):0
Visibility: greater than 7 mile(s):0
Temperature: 75 F (24 C)
Dew Point: 17 F (-8 C)
Relative Humidity: 11%
Pressure (altimeter): 30.12 in. Hg (1020 hPa)
ob: DAAJ 211500Z 15003KT CAVOK 24/M08 Q1020
cycle: 15

Station Type Date Time Source
DAAJ TAF 2020/02/21 12:33 UTC NOAA

TAF DAAJ 211100Z 2112/2212 24005KT CAVOK

Example: see airport list